createdAt,value
2019-01-21T00:00:38.681Z,101130.38
2019-01-21T00:05:34.859Z,101128.55
2019-01-21T00:10:30.757Z,101124.55
2019-01-21T00:15:26.774Z,101119.95
2019-01-21T00:20:22.682Z,101122.67
2019-01-21T00:25:18.579Z,101115.71
2019-01-21T00:30:14.506Z,101117.76
2019-01-21T00:35:10.519Z,101119.59
2019-01-21T00:40:09.724Z,101113.36
2019-01-21T00:45:05.834Z,101107.81
2019-01-21T00:50:01.982Z,101104.86
2019-01-21T00:54:58.637Z,101104.09
2019-01-21T00:59:54.639Z,101106.41
2019-01-21T01:04:50.554Z,101118.98
2019-01-21T01:09:46.462Z,101125.63
2019-01-21T01:14:42.364Z,101128.41
2019-01-21T01:19:39.079Z,101134.22
2019-01-21T01:24:35.088Z,101132.95
2019-01-21T01:29:31.039Z,101143.46
2019-01-21T01:34:27.092Z,101141.35
2019-01-21T01:39:23.017Z,101134.75
2019-01-21T01:44:18.935Z,101146.98
2019-01-21T01:49:17.730Z,101134.89
2019-01-21T01:54:13.736Z,101141.08
2019-01-21T01:59:09.717Z,101144.12
2019-01-21T02:04:05.722Z,101139.73
2019-01-21T02:09:01.930Z,101141.45
2019-01-21T02:13:57.834Z,101140.90
2019-01-21T02:18:57.268Z,101142.98
2019-01-21T02:23:55.874Z,101144.42
2019-01-21T02:29:07.425Z,101147.94
2019-01-21T02:34:18.955Z,101140.73
2019-01-21T02:39:24.955Z,101147.45
2019-01-21T02:44:57.940Z,101145.57
2019-01-21T02:50:12.651Z,101145.22
2019-01-21T02:55:30.714Z,101145.22
2019-01-21T03:01:08.432Z,101142.30
2019-01-21T03:06:25.917Z,101129.19
2019-01-21T03:11:40.938Z,101131.69
2019-01-21T03:17:06.662Z,101122.26
2019-01-21T03:22:32.769Z,101125.39
2019-01-21T03:27:38.374Z,101122.89
2019-01-21T03:32:58.745Z,101119.34
2019-01-21T03:38:08.079Z,101113.08
2019-01-21T03:43:10.754Z,101110.59
2019-01-21T03:48:28.751Z,101116.69
2019-01-21T03:53:40.284Z,101121.50
2019-01-21T03:58:46.327Z,101117.84
2019-01-21T04:03:48.778Z,101122.63
2019-01-21T04:08:53.931Z,101121.72
2019-01-21T04:14:05.946Z,101117.77
2019-01-21T04:19:12.060Z,101119.59
2019-01-21T04:24:28.588Z,101130.99
2019-01-21T04:29:48.156Z,101130.02
2019-01-21T04:35:14.739Z,101129.43
2019-01-21T04:40:14.461Z,101121.53
2019-01-21T04:45:16.915Z,101116.64
2019-01-21T04:50:37.624Z,101114.47
2019-01-21T04:56:00.057Z,101115.58
2019-01-21T05:01:26.016Z,101124.33
2019-01-21T05:06:35.098Z,101121.76
2019-01-21T05:11:57.844Z,101120.27
2019-01-21T05:17:17.549Z,101115.30
2019-01-21T05:22:20.358Z,101112.33
2019-01-21T05:27:31.862Z,101116.19
2019-01-21T05:32:53.340Z,101103.72
2019-01-21T05:38:09.707Z,101100.44
2019-01-21T05:43:12.443Z,101091.70
2019-01-21T05:48:30.406Z,101091.45
2019-01-21T05:53:41.978Z,101089.28
2019-01-21T05:58:50.802Z,101092.11
2019-01-21T06:04:05.697Z,101102.08
2019-01-21T06:09:17.414Z,101100.69
2019-01-21T06:14:40.098Z,101103.59
2019-01-21T06:20:01.224Z,101099.13
2019-01-21T06:25:25.553Z,101103.22
2019-01-21T06:30:28.364Z,101102.97
2019-01-21T06:35:37.333Z,101106.39
2019-01-21T06:40:58.193Z,101107.73
2019-01-21T06:46:09.439Z,101103.73
2019-01-21T06:51:24.455Z,101114.67
2019-01-21T06:56:51.185Z,101112.66
2019-01-21T07:02:03.212Z,101113.38
2019-01-21T07:07:11.799Z,101113.75
2019-01-21T07:12:14.532Z,101131.73
2019-01-21T07:17:20.469Z,101130.55
2019-01-21T07:22:28.798Z,101133.93
2019-01-21T07:27:56.254Z,101143.62
2019-01-21T07:33:16.644Z,101142.34
2019-01-21T07:38:16.022Z,101141.26
2019-01-21T07:43:35.616Z,101144.29
2019-01-21T07:48:51.990Z,101142.86
2019-01-21T07:53:51.720Z,101143.01
2019-01-21T07:59:00.589Z,101148.77
2019-01-21T08:04:09.195Z,101145.48
2019-01-21T08:09:14.454Z,101164.41
2019-01-21T08:14:16.937Z,101167.71
2019-01-21T08:19:33.995Z,101173.60
2019-01-21T08:24:53.667Z,101179.83
2019-01-21T08:29:59.195Z,101193.98
2019-01-21T08:35:17.289Z,101191.78
2019-01-21T08:40:25.989Z,101194.70
2019-01-21T08:45:42.299Z,101214.70
2019-01-21T08:50:44.826Z,101202.95
2019-01-21T08:55:47.423Z,101200.02
2019-01-21T09:00:50.189Z,101190.08
2019-01-21T09:05:49.966Z,101186.76
2019-01-21T09:11:04.934Z,101177.16
2019-01-21T09:16:16.527Z,101180.52
2019-01-21T09:21:28.338Z,101175.70
2019-01-21T09:26:39.683Z,101176.88
2019-01-21T09:31:54.741Z,101180.00
2019-01-21T09:36:57.393Z,101184.20
2019-01-21T09:41:59.946Z,101186.60
2019-01-21T09:46:55.689Z,101189.71
2019-01-21T09:51:52.293Z,101176.28
2019-01-21T09:56:48.221Z,101161.37
2019-01-21T10:01:44.344Z,101154.70
2019-01-21T10:06:43.180Z,101160.52
2019-01-21T10:12:06.007Z,101152.71
2019-01-21T10:17:29.486Z,101148.97
2019-01-21T10:22:50.639Z,101148.97
2019-01-21T10:27:56.414Z,101142.17
2019-01-21T10:33:05.247Z,101128.69
2019-01-21T10:38:28.098Z,101124.23
2019-01-21T10:43:44.641Z,101135.57
2019-01-21T10:48:50.666Z,101129.59
2019-01-21T10:53:50.392Z,101120.11
2019-01-21T10:59:10.683Z,101124.58
2019-01-21T11:04:22.538Z,101133.26
2019-01-21T11:09:26.653Z,101117.20
2019-01-21T11:14:32.228Z,101110.58
2019-01-21T11:19:56.757Z,101111.42
2019-01-21T11:25:11.541Z,101102.58
2019-01-21T11:30:22.853Z,101097.82
2019-01-21T11:35:57.838Z,101101.83
2019-01-21T11:41:06.720Z,101098.30
2019-01-21T11:46:12.072Z,101092.70
2019-01-21T11:51:23.821Z,101084.13
2019-01-21T11:56:26.514Z,101092.22
2019-01-21T12:01:26.232Z,101075.17
2019-01-21T12:06:35.073Z,101060.50
2019-01-21T12:11:56.427Z,101053.45
2019-01-21T12:17:05.124Z,101061.19
2019-01-21T12:22:10.621Z,101042.48
2019-01-21T12:27:19.710Z,101040.22
2019-01-21T12:32:43.737Z,101036.11
2019-01-21T12:38:03.122Z,101031.70
2019-01-21T12:43:05.838Z,101015.50
2019-01-21T12:48:32.383Z,101003.37
2019-01-21T12:53:41.090Z,101000.17
2019-01-21T12:58:41.033Z,100984.83
2019-01-21T13:03:43.616Z,100985.77
2019-01-21T13:09:09.229Z,100982.87
2019-01-21T13:14:11.761Z,100981.45
2019-01-21T13:19:28.218Z,100980.58
2019-01-21T13:25:13.677Z,100968.73
2019-01-21T13:30:28.653Z,100962.06
2019-01-21T13:35:55.242Z,100960.50
2019-01-21T13:41:10.346Z,100953.01
2019-01-21T13:46:30.912Z,100954.38
2019-01-21T13:51:42.902Z,100946.52
2019-01-21T13:56:53.471Z,100945.22
2019-01-21T14:01:56.359Z,100949.11
2019-01-21T14:07:12.669Z,100936.56
2019-01-21T14:12:12.393Z,100934.61
2019-01-21T14:17:33.481Z,100929.67
2019-01-21T14:23:00.520Z,100927.58
2019-01-21T14:28:09.270Z,100918.23
2019-01-21T14:33:21.134Z,100910.81
2019-01-21T14:38:23.887Z,100905.99
2019-01-21T14:43:29.318Z,100897.87
2019-01-21T14:49:05.372Z,100893.40
2019-01-21T14:54:08.214Z,100877.23
2019-01-21T14:59:19.872Z,100875.48
2019-01-21T15:04:28.586Z,100874.16
2019-01-21T15:09:36.737Z,100869.86
2019-01-21T15:15:12.711Z,100865.07
2019-01-21T15:20:21.126Z,100870.02
2019-01-21T15:25:43.457Z,100864.67
2019-01-21T15:31:22.031Z,100866.50
2019-01-21T15:36:41.441Z,100865.78
2019-01-21T15:42:01.795Z,100859.97
2019-01-21T15:47:22.400Z,100852.15
2019-01-21T15:52:28.307Z,100851.63
2019-01-21T15:57:31.156Z,100847.88
2019-01-21T16:02:34.617Z,100866.19
2019-01-21T16:07:34.541Z,100880.30
2019-01-21T16:12:49.067Z,100868.04
2019-01-21T16:17:54.858Z,100872.33
2019-01-21T16:23:09.824Z,100860.13
2019-01-21T16:28:46.357Z,100857.28
2019-01-21T16:33:55.506Z,100854.22
2019-01-21T16:38:55.199Z,100857.19
2019-01-21T16:43:52.838Z,100852.56
2019-01-21T16:48:53.808Z,100860.59
2019-01-21T16:53:50.798Z,100864.95
2019-01-21T16:58:47.697Z,100855.59
2019-01-21T17:03:44.902Z,100848.36
2019-01-21T17:08:40.901Z,100848.36
2019-01-21T17:13:37.903Z,100847.48
2019-01-21T17:18:36.222Z,100844.95
2019-01-21T17:23:32.257Z,100844.95
2019-01-21T17:28:28.171Z,100827.09
2019-01-21T17:33:24.974Z,100827.79
2019-01-21T17:38:20.854Z,100825.50
2019-01-21T17:43:16.873Z,100824.92
2019-01-21T17:48:15.381Z,100832.19
2019-01-21T17:53:11.507Z,100825.67
2019-01-21T17:58:16.846Z,100837.81
2019-01-21T18:03:15.916Z,100832.02
2019-01-21T18:08:16.409Z,100828.50
2019-01-21T18:13:15.882Z,100818.16
2019-01-21T18:18:12.643Z,100815.41
2019-01-21T18:23:08.869Z,100819.66
2019-01-21T18:28:05.872Z,100808.83
2019-01-21T18:33:02.115Z,100799.31
2019-01-21T18:37:58.059Z,100800.49
2019-01-21T18:42:54.056Z,100791.67
2019-01-21T18:47:49.976Z,100784.12
2019-01-21T18:52:46.265Z,100787.11
2019-01-21T18:57:42.170Z,100789.48
2019-01-21T19:02:38.056Z,100784.67
2019-01-21T19:07:33.980Z,100785.95
2019-01-21T19:12:29.869Z,100779.37
2019-01-21T19:17:25.777Z,100786.38
2019-01-21T19:22:21.670Z,100797.02
2019-01-21T19:27:17.566Z,100789.00
2019-01-21T19:32:13.458Z,100792.89
2019-01-21T19:37:09.365Z,100785.35
2019-01-21T19:42:05.261Z,100780.05
2019-01-21T19:47:01.253Z,100770.20
2019-01-21T19:52:00.480Z,100768.38
2019-01-21T19:56:54.965Z,100769.08
2019-01-21T20:01:50.954Z,100767.42
2019-01-21T20:06:46.897Z,100769.06
2019-01-21T20:11:42.785Z,100766.67
2019-01-21T20:16:38.674Z,100758.95
2019-01-21T20:21:34.566Z,100751.64
2019-01-21T20:26:30.457Z,100749.49
2019-01-21T20:31:26.351Z,100743.23
2019-01-21T20:36:22.261Z,100753.71
2019-01-21T20:41:18.295Z,100747.45
2019-01-21T20:46:14.227Z,100753.42
2019-01-21T20:51:10.192Z,100752.31
2019-01-21T20:56:06.233Z,100751.50
2019-01-21T21:01:02.231Z,100736.95
2019-01-21T21:05:58.181Z,100734.81
2019-01-21T21:10:54.150Z,100737.28
2019-01-21T21:15:50.066Z,100740.01
2019-01-21T21:20:45.975Z,100738.02
2019-01-21T21:25:41.978Z,100742.28
2019-01-21T21:30:38.732Z,100732.89
2019-01-21T21:35:35.039Z,100728.50
2019-01-21T21:40:30.954Z,100731.20
2019-01-21T21:45:27.918Z,100726.64
2019-01-21T21:50:26.346Z,100720.42
2019-01-21T21:55:22.245Z,100722.08
2019-01-21T22:00:21.169Z,100715.14
2019-01-21T22:05:17.813Z,100705.59
2019-01-21T22:10:19.662Z,100699.41
2019-01-21T22:15:16.745Z,100694.30
2019-01-21T22:20:15.643Z,100695.75
2019-01-21T22:25:11.538Z,100686.98
2019-01-21T22:30:11.254Z,100679.27
2019-01-21T22:35:07.278Z,100671.23
2019-01-21T22:40:06.986Z,100670.34
2019-01-21T22:45:05.386Z,100666.05
2019-01-21T22:50:01.405Z,100658.27
2019-01-21T22:54:57.730Z,100661.93
2019-01-21T22:59:53.651Z,100653.14
2019-01-21T23:04:49.579Z,100648.39
2019-01-21T23:09:45.461Z,100649.31
2019-01-21T23:14:41.471Z,100637.95
2019-01-21T23:19:38.099Z,100643.59
2019-01-21T23:24:34.054Z,100630.09
2019-01-21T23:29:29.947Z,100623.30
2019-01-21T23:34:25.889Z,100617.26
2019-01-21T23:39:21.800Z,100611.42
2019-01-21T23:44:17.718Z,100614.80
2019-01-21T23:49:27.039Z,100606.20
2019-01-21T23:54:23.090Z,100598.34
2019-01-21T23:59:18.983Z,100589.20
